createdAt,value
2022-09-14T00:00:06.558Z,2.75
2022-09-14T00:02:40.382Z,2.30
2022-09-14T00:05:12.617Z,2.47
2022-09-14T00:07:44.564Z,2.33
2022-09-14T00:10:16.516Z,2.60
2022-09-14T00:12:48.591Z,2.65
2022-09-14T00:15:20.665Z,3.47
2022-09-14T00:17:52.598Z,3.30
2022-09-14T00:20:24.520Z,2.35
2022-09-14T00:22:56.884Z,2.30
2022-09-14T00:25:29.363Z,3.45
2022-09-14T00:28:01.145Z,2.42
2022-09-14T00:30:33.486Z,2.75
2022-09-14T00:33:05.378Z,2.80
2022-09-14T00:35:37.855Z,2.92
2022-09-14T00:38:10.075Z,2.60
2022-09-14T00:40:42.027Z,3.30
2022-09-14T00:43:17.179Z,2.92
2022-09-14T00:45:49.349Z,3.00
2022-09-14T00:48:24.015Z,2.92
2022-09-14T00:53:27.137Z,3.65
2022-09-14T00:55:59.052Z,2.87
2022-09-14T00:58:31.048Z,2.92
2022-09-14T01:01:03.106Z,3.17
2022-09-14T01:03:35.233Z,3.42
2022-09-14T01:06:13.080Z,2.92
2022-09-14T01:09:06.027Z,2.65
2022-09-14T01:11:51.766Z,2.98
2022-09-14T01:14:30.031Z,3.00
2022-09-14T01:17:10.894Z,3.00
2022-09-14T01:20:11.313Z,2.72
2022-09-14T01:23:07.002Z,3.08
2022-09-14T01:25:41.856Z,2.62
2022-09-14T01:28:25.590Z,2.92
2022-09-14T01:31:00.649Z,2.65
2022-09-14T01:33:35.538Z,2.80
2022-09-14T01:36:11.122Z,3.37
2022-09-14T01:38:46.191Z,2.77
2022-09-14T01:41:21.147Z,2.87
2022-09-14T01:43:58.905Z,2.70
2022-09-14T01:46:33.632Z,2.87
2022-09-14T01:49:11.637Z,2.45
2022-09-14T01:51:49.157Z,3.05
2022-09-14T01:54:32.475Z,2.80
2022-09-14T01:57:07.407Z,2.60
2022-09-14T01:59:42.457Z,2.60
2022-09-14T02:02:17.455Z,2.83
2022-09-14T02:05:10.239Z,3.08
2022-09-14T02:07:42.552Z,3.42
2022-09-14T02:10:17.442Z,3.08
2022-09-14T02:15:20.846Z,2.85
2022-09-14T02:17:53.769Z,2.60
2022-09-14T02:20:29.002Z,2.60
2022-09-14T02:23:01.279Z,3.02
2022-09-14T02:25:33.929Z,2.98
2022-09-14T02:28:06.171Z,3.77
2022-09-14T02:30:57.461Z,3.25
2022-09-14T02:33:38.226Z,3.02
2022-09-14T02:36:18.951Z,2.85
2022-09-14T02:39:10.240Z,2.65
2022-09-14T02:41:45.197Z,2.85
2022-09-14T02:44:31.924Z,2.65
2022-09-14T02:47:06.916Z,2.62
2022-09-14T02:49:53.685Z,2.85
2022-09-14T02:52:43.509Z,2.60
2022-09-14T02:55:18.904Z,2.83
2022-09-14T02:58:05.320Z,2.45
2022-09-14T03:00:46.285Z,2.37
2022-09-14T03:03:21.520Z,2.70
2022-09-14T03:05:53.555Z,2.50
2022-09-14T03:08:26.650Z,2.87
2022-09-14T03:10:58.539Z,2.87
2022-09-14T03:13:30.581Z,2.75
2022-09-14T03:16:11.305Z,2.83
2022-09-14T03:18:43.781Z,2.95
2022-09-14T03:21:17.818Z,3.20
2022-09-14T03:23:52.662Z,3.12
2022-09-14T03:26:26.530Z,3.50
2022-09-14T03:29:00.478Z,3.52
2022-09-14T03:31:32.947Z,3.40
2022-09-14T03:34:04.839Z,3.92
2022-09-14T03:36:36.722Z,3.62
2022-09-14T03:39:09.261Z,3.47
2022-09-14T03:41:41.303Z,3.87
2022-09-14T03:44:13.254Z,4.00
2022-09-14T03:46:46.187Z,4.00
2022-09-14T03:49:18.257Z,4.35
2022-09-14T03:51:50.729Z,4.17
2022-09-14T03:54:22.787Z,5.00
2022-09-14T03:56:55.669Z,5.65
2022-09-14T03:59:27.809Z,5.58
2022-09-14T04:02:00.688Z,5.58
2022-09-14T04:04:32.730Z,5.83
2022-09-14T04:07:05.178Z,6.15
2022-09-14T04:09:38.805Z,5.10
2022-09-14T04:12:11.195Z,5.92
2022-09-14T04:14:43.282Z,6.17
2022-09-14T04:17:15.429Z,5.95
2022-09-14T04:19:47.357Z,6.78
2022-09-14T04:22:19.531Z,6.17
2022-09-14T04:24:51.572Z,6.67
2022-09-14T04:27:23.578Z,6.92
2022-09-14T04:29:55.592Z,7.12
2022-09-14T04:32:32.049Z,7.87
2022-09-14T04:35:01.290Z,7.07
2022-09-14T04:37:34.249Z,7.25
2022-09-14T04:40:06.684Z,7.40
2022-09-14T04:42:38.894Z,8.30
2022-09-14T04:45:11.463Z,8.33
2022-09-14T04:47:43.666Z,7.75
2022-09-14T04:50:15.919Z,8.70
2022-09-14T04:52:48.128Z,8.50
2022-09-14T04:55:19.996Z,7.25
2022-09-14T04:57:52.322Z,6.45
2022-09-14T05:00:24.403Z,8.13
2022-09-14T05:02:56.901Z,7.20
2022-09-14T05:05:29.127Z,6.35
2022-09-14T05:08:01.286Z,7.58
2022-09-14T05:10:33.367Z,7.15
2022-09-14T05:13:05.621Z,7.05
2022-09-14T05:15:37.728Z,7.05
2022-09-14T05:18:10.101Z,7.08
2022-09-14T05:20:42.185Z,6.28
2022-09-14T05:23:14.454Z,7.15
2022-09-14T05:25:48.344Z,6.17
2022-09-14T05:28:20.529Z,6.85
2022-09-14T05:30:53.307Z,7.00
2022-09-14T05:33:25.606Z,5.87
2022-09-14T05:36:02.951Z,6.28
2022-09-14T05:38:37.005Z,6.53
2022-09-14T05:41:11.550Z,6.87
2022-09-14T05:46:19.500Z,5.87
2022-09-14T05:48:52.092Z,7.83
2022-09-14T05:51:26.141Z,7.78
2022-09-14T05:53:59.602Z,10.85
2022-09-14T05:56:32.068Z,7.73
2022-09-14T05:59:04.483Z,6.83
2022-09-14T06:01:36.743Z,8.58
2022-09-14T06:04:10.547Z,8.38
2022-09-14T06:06:49.342Z,6.87
2022-09-14T06:09:16.898Z,7.30
2022-09-14T06:11:48.885Z,7.37
2022-09-14T06:14:21.371Z,8.15
2022-09-14T06:16:53.874Z,7.12
2022-09-14T06:19:26.161Z,7.12
2022-09-14T06:21:58.162Z,6.28
2022-09-14T06:24:30.353Z,5.95
2022-09-14T06:27:02.873Z,6.85
2022-09-14T06:29:34.955Z,6.30
2022-09-14T06:32:07.101Z,6.08
2022-09-14T06:34:39.413Z,6.33
2022-09-14T06:37:11.515Z,6.70
2022-09-14T06:39:43.553Z,6.90
2022-09-14T06:42:15.986Z,5.75
2022-09-14T06:44:49.162Z,6.58
2022-09-14T06:47:21.208Z,7.40
2022-09-14T06:49:54.052Z,6.28
2022-09-14T06:52:28.606Z,6.30
2022-09-14T06:54:59.974Z,5.45
2022-09-14T06:57:32.672Z,6.42
2022-09-14T07:00:06.148Z,6.67
2022-09-14T07:02:38.218Z,5.70
2022-09-14T07:05:10.777Z,9.58
2022-09-14T07:07:43.038Z,6.40
2022-09-14T07:10:15.305Z,5.33
2022-09-14T07:12:47.705Z,5.87
2022-09-14T07:15:19.755Z,6.47
2022-09-14T07:17:51.824Z,5.90
2022-09-14T07:20:23.846Z,5.78
2022-09-14T07:22:56.596Z,5.80
2022-09-14T07:25:28.828Z,7.45
2022-09-14T07:28:01.540Z,7.67
2022-09-14T07:30:38.653Z,9.28
2022-09-14T07:33:11.001Z,6.90
2022-09-14T07:35:43.169Z,7.12
2022-09-14T07:38:15.315Z,8.78
2022-09-14T07:40:47.516Z,8.00
2022-09-14T07:43:20.069Z,6.85
2022-09-14T07:45:52.190Z,8.48
2022-09-14T07:48:24.346Z,7.90
2022-09-14T07:51:07.199Z,7.47
2022-09-14T07:53:42.677Z,7.65
2022-09-14T07:56:17.039Z,7.95
2022-09-14T08:01:23.252Z,6.85
2022-09-14T08:03:54.457Z,7.53
2022-09-14T08:06:26.666Z,7.40
2022-09-14T08:08:58.363Z,8.65
2022-09-14T08:11:35.299Z,7.78
2022-09-14T08:14:10.477Z,7.78
2022-09-14T08:16:43.423Z,7.45
2022-09-14T08:19:17.402Z,7.03
2022-09-14T08:21:48.717Z,7.55
2022-09-14T08:24:22.351Z,8.78
2022-09-14T08:26:55.188Z,7.15
2022-09-14T08:29:27.152Z,7.20
2022-09-14T08:31:59.107Z,8.45
2022-09-14T08:34:30.972Z,8.38
2022-09-14T08:37:02.791Z,7.45
2022-09-14T08:39:34.258Z,7.80
2022-09-14T08:42:06.209Z,5.95
2022-09-14T08:44:46.361Z,6.30
2022-09-14T08:47:29.489Z,7.67
2022-09-14T08:50:21.455Z,6.92
2022-09-14T08:52:55.468Z,7.17
2022-09-14T08:55:44.597Z,8.50
2022-09-14T08:58:30.814Z,7.83
2022-09-14T09:01:19.854Z,6.62
2022-09-14T09:04:24.500Z,8.55
2022-09-14T09:07:17.933Z,6.60
2022-09-14T09:09:52.678Z,11.65
2022-09-14T09:12:42.083Z,7.10
2022-09-14T09:15:30.706Z,6.37
2022-09-14T09:18:04.982Z,6.17
2022-09-14T09:20:39.068Z,6.47
2022-09-14T09:23:18.625Z,6.12
2022-09-14T09:26:01.661Z,6.37
2022-09-14T09:28:34.072Z,6.05
2022-09-14T09:31:14.594Z,6.25
2022-09-14T09:33:51.735Z,6.92
2022-09-14T09:36:25.431Z,6.80
2022-09-14T09:39:04.448Z,6.35
2022-09-14T09:41:42.979Z,5.70
2022-09-14T09:44:15.006Z,4.92
2022-09-14T09:46:59.307Z,4.95
2022-09-14T09:49:37.257Z,5.45
2022-09-14T09:52:15.402Z,5.50
2022-09-14T09:54:56.716Z,6.20
2022-09-14T09:57:37.667Z,4.65
2022-09-14T10:00:24.433Z,5.08
2022-09-14T10:02:57.193Z,6.50
2022-09-14T10:05:32.716Z,6.30
2022-09-14T10:08:11.393Z,6.37
2022-09-14T10:10:44.854Z,6.50
2022-09-14T10:13:38.782Z,6.83
2022-09-14T10:16:19.091Z,6.33
2022-09-14T10:18:53.841Z,6.70
2022-09-14T10:21:26.996Z,7.35
2022-09-14T10:24:22.615Z,7.05
2022-09-14T10:26:54.591Z,6.97
2022-09-14T10:29:35.815Z,6.60
2022-09-14T10:32:17.888Z,8.53
2022-09-14T10:34:51.339Z,7.08
2022-09-14T10:37:38.142Z,7.03
2022-09-14T10:40:19.807Z,6.80
2022-09-14T10:42:54.640Z,7.10
2022-09-14T10:45:45.061Z,7.25
2022-09-14T10:48:46.935Z,7.30
2022-09-14T10:51:47.148Z,21.82
2022-09-14T10:54:28.186Z,11.45
2022-09-14T10:57:31.557Z,8.35
2022-09-14T11:00:08.351Z,8.63
2022-09-14T11:02:55.284Z,10.28
2022-09-14T11:05:30.148Z,7.95
2022-09-14T11:08:22.577Z,8.10
2022-09-14T11:11:11.206Z,6.87
2022-09-14T11:13:45.916Z,7.15
2022-09-14T11:16:20.911Z,6.58
2022-09-14T11:18:55.792Z,5.72
2022-09-14T11:21:30.777Z,6.58
2022-09-14T11:24:14.741Z,5.58
2022-09-14T11:26:49.720Z,5.30
2022-09-14T11:29:37.555Z,6.28
2022-09-14T11:32:21.368Z,6.65
2022-09-14T11:34:56.607Z,4.90
2022-09-14T11:37:37.437Z,6.22
2022-09-14T11:40:25.055Z,5.33
2022-09-14T11:43:06.124Z,5.67
2022-09-14T11:45:53.275Z,6.30
2022-09-14T11:48:47.698Z,5.55
2022-09-14T11:51:25.720Z,4.65
2022-09-14T11:53:57.761Z,4.60
2022-09-14T11:56:33.305Z,5.08
2022-09-14T11:59:08.426Z,5.55
2022-09-14T12:04:18.048Z,4.85
2022-09-14T12:06:54.117Z,6.72
2022-09-14T12:09:29.342Z,4.87
2022-09-14T12:12:03.459Z,5.37
2022-09-14T12:14:38.592Z,6.22
2022-09-14T12:17:41.579Z,7.28
2022-09-14T12:20:02.799Z,10.63
2022-09-14T12:22:39.683Z,5.53
2022-09-14T12:25:14.958Z,5.78
2022-09-14T12:27:49.948Z,5.85
2022-09-14T12:30:41.685Z,5.95
2022-09-14T12:33:33.606Z,5.30
2022-09-14T12:36:22.801Z,5.37
2022-09-14T12:38:57.684Z,54.05
2022-09-14T12:41:40.508Z,12.35
2022-09-14T12:44:36.593Z,4.47
2022-09-14T12:47:30.148Z,3.72
2022-09-14T12:50:20.272Z,4.78
2022-09-14T12:53:03.850Z,4.62
2022-09-14T12:55:56.778Z,6.17
2022-09-14T12:58:38.107Z,5.20
2022-09-14T13:01:35.739Z,4.40
2022-09-14T13:04:10.935Z,5.03
2022-09-14T13:06:46.703Z,6.20
2022-09-14T13:09:27.031Z,4.00
2022-09-14T13:12:02.171Z,4.12
2022-09-14T13:14:37.974Z,5.03
2022-09-14T13:17:13.125Z,4.83
2022-09-14T13:19:46.931Z,4.00
2022-09-14T13:22:24.547Z,5.50
2022-09-14T13:24:57.226Z,4.60
2022-09-14T13:27:35.050Z,4.15
2022-09-14T13:30:13.335Z,4.12
2022-09-14T13:32:48.112Z,4.42
2022-09-14T13:35:32.353Z,4.40
2022-09-14T13:38:10.433Z,4.30
2022-09-14T13:40:42.937Z,4.67
2022-09-14T13:43:16.871Z,4.65
2022-09-14T13:45:51.263Z,5.90
2022-09-14T13:48:24.375Z,4.30
2022-09-14T13:50:56.845Z,4.12
2022-09-14T13:53:45.545Z,4.62
2022-09-14T13:56:32.819Z,4.90
2022-09-14T13:59:22.731Z,5.15
2022-09-14T14:02:03.850Z,4.58
2022-09-14T14:04:38.760Z,4.35
2022-09-14T14:07:23.021Z,4.87
2022-09-14T14:09:58.080Z,4.67
2022-09-14T14:15:17.287Z,5.20
2022-09-14T14:17:49.449Z,4.60
2022-09-14T14:20:24.739Z,5.10
2022-09-14T14:23:15.211Z,4.05
2022-09-14T14:25:56.164Z,6.97
2022-09-14T14:28:30.525Z,5.58
2022-09-14T14:31:08.651Z,5.15
2022-09-14T14:33:41.884Z,4.90
2022-09-14T14:36:15.075Z,6.10
2022-09-14T14:38:48.242Z,6.10
2022-09-14T14:41:22.797Z,5.10
2022-09-14T14:46:25.821Z,4.90
2022-09-14T14:48:58.227Z,5.05
2022-09-14T14:51:30.277Z,5.55
2022-09-14T14:54:02.395Z,5.22
2022-09-14T14:56:35.197Z,5.70
2022-09-14T14:59:22.085Z,6.45
2022-09-14T15:01:55.423Z,6.33
2022-09-14T15:04:27.919Z,5.37
2022-09-14T15:07:00.488Z,4.92
2022-09-14T15:09:33.197Z,6.22
2022-09-14T15:12:08.691Z,4.72
2022-09-14T15:14:41.134Z,5.55
2022-09-14T15:17:13.352Z,5.30
2022-09-14T15:19:45.772Z,4.37
2022-09-14T15:22:18.108Z,5.92
2022-09-14T15:24:50.291Z,4.55
2022-09-14T15:27:22.354Z,5.30
2022-09-14T15:29:54.570Z,5.55
2022-09-14T15:32:26.611Z,5.87
2022-09-14T15:34:58.792Z,4.58
2022-09-14T15:37:32.744Z,4.90
2022-09-14T15:40:06.483Z,5.35
2022-09-14T15:42:39.193Z,4.90
2022-09-14T15:45:12.146Z,4.92
2022-09-14T15:47:44.782Z,5.42
2022-09-14T15:50:17.347Z,5.53
2022-09-14T15:52:49.698Z,6.20
2022-09-14T15:55:22.429Z,5.50
2022-09-14T15:57:54.772Z,6.42
2022-09-14T16:00:27.149Z,6.03
2022-09-14T16:02:59.408Z,5.72
2022-09-14T16:05:34.573Z,6.22
2022-09-14T16:08:07.573Z,6.53
2022-09-14T16:10:40.033Z,6.45
2022-09-14T16:13:12.207Z,6.20
2022-09-14T16:15:44.626Z,6.78
2022-09-14T16:18:16.879Z,7.45
2022-09-14T16:20:49.137Z,6.80
2022-09-14T16:23:22.171Z,6.92
2022-09-14T16:25:54.533Z,6.80
2022-09-14T16:28:28.339Z,6.75
2022-09-14T16:31:11.351Z,6.33
2022-09-14T16:33:46.402Z,7.42
2022-09-14T16:36:22.255Z,8.13
2022-09-14T16:38:56.741Z,7.30
2022-09-14T16:41:30.339Z,6.92
2022-09-14T16:44:05.108Z,7.35
2022-09-14T16:46:37.405Z,9.53
2022-09-14T16:49:09.643Z,8.35
2022-09-14T16:51:41.990Z,8.00
2022-09-14T16:54:23.075Z,9.43
2022-09-14T16:56:57.300Z,8.88
2022-09-14T16:59:29.966Z,8.38
2022-09-14T17:02:02.586Z,9.40
2022-09-14T17:04:34.903Z,8.40
2022-09-14T17:07:07.267Z,8.68
2022-09-14T17:09:40.974Z,8.08
2022-09-14T17:12:13.223Z,8.38
2022-09-14T17:14:46.799Z,8.93
2022-09-14T17:17:19.206Z,9.13
2022-09-14T17:19:52.273Z,8.08
2022-09-14T17:22:25.068Z,8.70
2022-09-14T17:24:57.520Z,7.67
2022-09-14T17:27:30.420Z,7.47
2022-09-14T17:30:02.730Z,8.30
2022-09-14T17:32:36.439Z,8.30
2022-09-14T17:35:12.097Z,8.35
2022-09-14T17:37:47.997Z,8.13
2022-09-14T17:40:21.206Z,7.45
2022-09-14T17:42:55.269Z,8.73
2022-09-14T17:45:29.553Z,8.10
2022-09-14T17:48:06.751Z,8.25
2022-09-14T17:50:41.242Z,8.50
2022-09-14T17:53:22.370Z,8.55
2022-09-14T17:56:05.235Z,8.23
2022-09-14T17:58:39.061Z,8.68
2022-09-14T18:01:18.228Z,7.90
2022-09-14T18:03:57.765Z,9.43
2022-09-14T18:06:35.106Z,8.90
2022-09-14T18:09:11.085Z,9.18
2022-09-14T18:11:43.605Z,9.43
2022-09-14T18:14:17.923Z,9.10
2022-09-14T18:16:51.327Z,9.93
2022-09-14T18:19:24.842Z,9.90
2022-09-14T18:21:57.519Z,9.03
2022-09-14T18:24:30.302Z,8.80
2022-09-14T18:27:02.807Z,8.90
2022-09-14T18:29:36.155Z,8.90
2022-09-14T18:32:09.737Z,9.20
2022-09-14T18:34:42.890Z,8.60
2022-09-14T18:37:15.021Z,7.90
2022-09-14T18:39:48.037Z,8.65
2022-09-14T18:42:20.233Z,8.28
2022-09-14T18:44:54.225Z,8.88
2022-09-14T18:47:26.558Z,7.97
2022-09-14T18:49:58.633Z,8.18
2022-09-14T18:52:30.690Z,8.53
2022-09-14T18:55:02.990Z,8.43
2022-09-14T18:57:35.349Z,9.38
2022-09-14T19:00:09.442Z,9.78
2022-09-14T19:02:41.824Z,9.73
2022-09-14T19:05:14.796Z,9.78
2022-09-14T19:07:46.881Z,9.15
2022-09-14T19:10:19.528Z,9.30
2022-09-14T19:12:51.616Z,9.90
2022-09-14T19:15:23.583Z,10.18
2022-09-14T19:17:55.516Z,10.30
2022-09-14T19:20:43.134Z,9.65
2022-09-14T19:23:01.115Z,9.90
2022-09-14T19:25:34.687Z,10.50
2022-09-14T19:28:07.855Z,10.85
2022-09-14T19:30:42.667Z,11.28
2022-09-14T19:33:14.899Z,11.68
2022-09-14T19:35:46.952Z,11.00
2022-09-14T19:38:19.234Z,10.93
2022-09-14T19:40:54.536Z,12.55
2022-09-14T19:43:26.780Z,11.45
2022-09-14T19:46:04.380Z,11.78
2022-09-14T19:48:37.238Z,11.55
2022-09-14T19:51:12.064Z,12.10
2022-09-14T19:53:44.854Z,12.50
2022-09-14T19:56:19.611Z,12.47
2022-09-14T19:58:53.839Z,11.80
2022-09-14T20:01:27.845Z,12.73
2022-09-14T20:04:00.118Z,13.43
2022-09-14T20:06:38.205Z,14.03
2022-09-14T20:09:13.137Z,14.38
2022-09-14T20:11:46.894Z,15.75
2022-09-14T20:14:21.559Z,15.93
2022-09-14T20:16:56.023Z,15.60
2022-09-14T20:19:29.509Z,15.50
2022-09-14T20:22:01.476Z,16.02
2022-09-14T20:24:33.577Z,15.48
2022-09-14T20:27:05.575Z,16.15
2022-09-14T20:29:37.590Z,15.03
2022-09-14T20:32:10.149Z,15.43
2022-09-14T20:34:42.334Z,15.10
2022-09-14T20:37:14.409Z,15.60
2022-09-14T20:39:46.452Z,15.05
2022-09-14T20:42:18.426Z,15.30
2022-09-14T20:44:50.505Z,14.60
2022-09-14T20:47:24.650Z,15.15
2022-09-14T20:49:56.549Z,14.23
2022-09-14T20:52:28.631Z,13.65
2022-09-14T20:55:00.734Z,13.15
2022-09-14T20:57:33.756Z,13.68
2022-09-14T21:00:05.923Z,14.18
2022-09-14T21:02:38.035Z,13.45
2022-09-14T21:05:10.258Z,13.70
2022-09-14T21:07:42.624Z,13.85
2022-09-14T21:10:14.871Z,13.78
2022-09-14T21:12:47.327Z,14.93
2022-09-14T21:15:19.228Z,14.65
2022-09-14T21:17:51.203Z,14.73
2022-09-14T21:20:23.110Z,14.95
2022-09-14T21:22:55.323Z,14.83
2022-09-14T21:25:27.318Z,15.60
2022-09-14T21:28:00.113Z,16.57
2022-09-14T21:30:32.528Z,16.77
2022-09-14T21:33:04.907Z,17.32
2022-09-14T21:35:36.892Z,17.57
2022-09-14T21:38:09.195Z,17.65
2022-09-14T21:40:44.062Z,16.70
2022-09-14T21:43:16.114Z,16.57
2022-09-14T21:45:48.260Z,16.95
2022-09-14T21:48:20.439Z,16.45
2022-09-14T21:50:53.833Z,15.38
2022-09-14T21:53:25.882Z,15.20
2022-09-14T21:55:58.079Z,16.82
2022-09-14T21:58:30.046Z,15.63
2022-09-14T22:01:03.693Z,14.87
2022-09-14T22:03:36.126Z,14.30
2022-09-14T22:06:11.743Z,13.78
2022-09-14T22:08:44.325Z,13.78
2022-09-14T22:11:22.394Z,11.90
2022-09-14T22:13:57.207Z,11.20
2022-09-14T22:16:31.108Z,12.20
2022-09-14T22:19:05.958Z,12.37
2022-09-14T22:21:39.517Z,10.53
2022-09-14T22:24:14.682Z,11.35
2022-09-14T22:26:47.198Z,11.18
2022-09-14T22:29:20.259Z,9.83
2022-09-14T22:31:52.588Z,11.05
2022-09-14T22:34:24.691Z,10.75
2022-09-14T22:36:56.727Z,11.60
2022-09-14T22:39:29.587Z,10.08
2022-09-14T22:42:01.638Z,10.15
2022-09-14T22:44:33.688Z,10.48
2022-09-14T22:47:05.636Z,10.10
2022-09-14T22:49:37.602Z,9.23
2022-09-14T22:52:09.553Z,9.15
2022-09-14T22:54:41.780Z,9.08
2022-09-14T22:57:13.673Z,9.73
2022-09-14T22:59:45.810Z,9.83
2022-09-14T23:02:17.849Z,8.60
2022-09-14T23:04:50.281Z,9.93
2022-09-14T23:07:22.145Z,8.90
2022-09-14T23:09:54.110Z,9.30
2022-09-14T23:12:26.078Z,8.85
2022-09-14T23:14:58.014Z,9.45
2022-09-14T23:17:30.031Z,9.20
2022-09-14T23:20:01.957Z,9.30
2022-09-14T23:22:33.996Z,9.65
2022-09-14T23:25:06.463Z,9.55
2022-09-14T23:27:38.398Z,8.25
2022-09-14T23:30:10.901Z,8.58
2022-09-14T23:32:42.786Z,8.50
2022-09-14T23:35:14.959Z,8.80
2022-09-14T23:37:46.763Z,8.78
2022-09-14T23:40:19.762Z,8.90
2022-09-14T23:42:52.034Z,8.60
2022-09-14T23:45:24.097Z,9.30
2022-09-14T23:47:56.180Z,9.35
2022-09-14T23:50:28.580Z,9.65
2022-09-14T23:53:00.637Z,9.25
2022-09-14T23:55:32.786Z,9.68
2022-09-14T23:58:05.236Z,10.20
